Maran Pythia — SVAQ5 — position and weather

sailwx.info

Track history (hours):
 
Tides and Currents Weather Stations Pressure Air Temp Water Temp Dewpoint Dewpoint Depression Visibility Wind Speed Wind Dir Waves Ship Positions

Maran Pythia

Last reported at 2014-Dec-21 01:33 UTC. Time now 2014-Dec-23 00:54 UTC.
Position N 37°53' E 025°48'.

Length 274 m; draft 9.2 m.

Type: Tanker. MMSI: 240893000.

Date/timePositionNaut miles runAvg speedWind from/ knotsBaromVisibWave heightAir tempDewpointWater temp
2014-Dec-21 01:33N 37°53' E 025°48'8 7.6
2014-Dec-21 00:33N 37°45' E 025°47'8 7.3
2014-Dec-20 23:26N 37°37' E 025°48'6 7.0
2014-Dec-20 22:33N 37°31' E 025°49'6 6.3
2014-Dec-20 21:33N 37°24' E 025°50'7 7.3
2014-Dec-20 20:33N 37°21' E 025°58'7 7.0
2014-Dec-20 19:33N 37°18' E 026°06'7 6.9
2014-Dec-20 18:33N 37°15' E 026°14'7 7.3
2014-Dec-20 17:33N 37°11' E 026°22'7 6.7
2014-Dec-20 16:33N 37°08' E 026°29'7 6.9
2014-Dec-20 15:32N 37°04' E 026°37'12 8.5
2014-Dec-20 14:10N 36°54' E 026°43'6 9.7
2014-Dec-20 13:33N 36°48' E 026°45'10 9.7
2014-Dec-20 12:33N 36°38' E 026°47'10 9.5
2014-Dec-20 11:32N 36°29' E 026°50'9 9.5
2014-Dec-20 10:33N 36°20' E 026°54'  
Track history (hours):
 
Tides and Currents Weather Stations Pressure Air Temp Water Temp Dewpoint Dewpoint Depression Visibility Wind Speed Wind Dir Waves Ship Positions

Maran Pythia

Last reported at 2014-Dec-21 01:33 UTC. Time now 2014-Dec-23 00:54 UTC.
Position N 37°53' E 025°48'.

Length 274 m; draft 9.2 m.

Type: Tanker. MMSI: 240893000.

Date/timePositionNaut miles runAvg speedWind from/ knotsBaromVisibWave heightAir tempDewpointWater temp
2014-Dec-21 01:33N 37°53' E 025°48'8 7.6
2014-Dec-21 00:33N 37°45' E 025°47'8 7.3
2014-Dec-20 23:26N 37°37' E 025°48'6 7.0
2014-Dec-20 22:33N 37°31' E 025°49'6 6.3
2014-Dec-20 21:33N 37°24' E 025°50'7 7.3
2014-Dec-20 20:33N 37°21' E 025°58'7 7.0
2014-Dec-20 19:33N 37°18' E 026°06'7 6.9
2014-Dec-20 18:33N 37°15' E 026°14'7 7.3
2014-Dec-20 17:33N 37°11' E 026°22'7 6.7
2014-Dec-20 16:33N 37°08' E 026°29'7 6.9
2014-Dec-20 15:32N 37°04' E 026°37'12 8.5
2014-Dec-20 14:10N 36°54' E 026°43'6 9.7
2014-Dec-20 13:33N 36°48' E 026°45'10 9.7
2014-Dec-20 12:33N 36°38' E 026°47'10 9.5
2014-Dec-20 11:32N 36°29' E 026°50'9 9.5
2014-Dec-20 10:33N 36°20' E 026°54'  

Dump ship's entire track history